createdAt,value
2018-03-16T00:01:50.306Z,27.10
2018-03-16T00:04:17.866Z,27.50
2018-03-16T00:06:45.446Z,27.40
2018-03-16T00:09:13.002Z,27.83
2018-03-16T00:11:40.543Z,28.00
2018-03-16T00:14:08.226Z,28.30
2018-03-16T00:16:35.775Z,28.67
2018-03-16T00:19:03.330Z,28.27
2018-03-16T00:21:30.898Z,29.13
2018-03-16T00:23:58.460Z,27.63
2018-03-16T00:26:26.130Z,28.33
2018-03-16T00:28:53.794Z,27.00
2018-03-16T00:31:21.455Z,28.07
2018-03-16T00:33:49.017Z,27.93
2018-03-16T00:36:16.609Z,28.50
2018-03-16T00:38:44.243Z,27.17
2018-03-16T00:41:11.941Z,28.00
2018-03-16T00:43:40.384Z,28.87
2018-03-16T00:46:07.935Z,27.37
2018-03-16T00:48:35.508Z,27.87
2018-03-16T00:51:03.066Z,27.77
2018-03-16T00:53:30.624Z,27.63
2018-03-16T00:55:58.190Z,27.60
2018-03-16T00:58:25.763Z,28.60
2018-03-16T01:00:53.307Z,28.83
2018-03-16T01:03:20.883Z,29.13
2018-03-16T01:05:48.479Z,27.00
2018-03-16T01:08:16.813Z,28.37
2018-03-16T01:10:44.371Z,28.63
2018-03-16T01:13:11.925Z,27.80
2018-03-16T01:15:39.472Z,29.23
2018-03-16T01:18:07.040Z,28.20
2018-03-16T01:20:40.433Z,28.40
2018-03-16T01:23:07.987Z,29.53
2018-03-16T01:25:35.532Z,29.53
2018-03-16T01:28:03.118Z,29.27
2018-03-16T01:30:30.691Z,28.07
2018-03-16T01:32:58.236Z,28.43
2018-03-16T01:35:25.806Z,28.10
2018-03-16T01:37:53.383Z,27.67
2018-03-16T01:40:21.124Z,30.03
2018-03-16T01:42:48.700Z,28.50
2018-03-16T01:45:16.267Z,28.20
2018-03-16T01:47:43.816Z,28.83
2018-03-16T01:50:11.381Z,27.97
2018-03-16T01:52:38.935Z,28.10
2018-03-16T01:55:06.483Z,31.43
2018-03-16T01:57:34.054Z,29.50
2018-03-16T02:00:02.468Z,30.57
2018-03-16T02:02:30.121Z,30.73
2018-03-16T02:04:57.681Z,29.57
2018-03-16T02:07:25.232Z,30.27
2018-03-16T02:09:52.792Z,28.97
2018-03-16T02:12:20.456Z,29.20
2018-03-16T02:14:48.006Z,30.50
2018-03-16T02:17:15.582Z,29.23
2018-03-16T02:19:43.141Z,29.57
2018-03-16T02:22:10.690Z,28.97
2018-03-16T02:24:38.240Z,28.53
2018-03-16T02:27:05.806Z,28.57
2018-03-16T02:29:33.349Z,30.20
2018-03-16T02:32:00.904Z,29.53
2018-03-16T02:34:28.473Z,28.67
2018-03-16T02:36:56.076Z,28.80
2018-03-16T02:39:23.623Z,29.53
2018-03-16T02:41:51.277Z,28.23
2018-03-16T02:44:18.827Z,27.60
2018-03-16T02:46:46.377Z,26.57
2018-03-16T02:49:13.951Z,27.03
2018-03-16T02:51:41.503Z,26.20
2018-03-16T02:54:09.061Z,26.47
2018-03-16T02:56:36.656Z,25.80
2018-03-16T02:59:04.218Z,27.30
2018-03-16T03:01:31.882Z,26.57
2018-03-16T03:03:59.438Z,25.03
2018-03-16T03:06:26.998Z,26.97
2018-03-16T03:08:54.542Z,25.73
2018-03-16T03:11:22.117Z,24.70
2018-03-16T03:13:49.668Z,24.63
2018-03-16T03:16:17.252Z,25.07
2018-03-16T03:18:44.831Z,24.30
2018-03-16T03:21:12.376Z,24.07
2018-03-16T03:23:39.921Z,24.40
2018-03-16T03:26:07.500Z,24.80
2018-03-16T03:28:35.150Z,24.40
2018-03-16T03:31:02.718Z,23.60
2018-03-16T03:33:30.579Z,23.13
2018-03-16T03:35:58.148Z,22.87
2018-03-16T03:38:25.701Z,24.20
2018-03-16T03:40:53.280Z,23.83
2018-03-16T03:43:20.935Z,23.90
2018-03-16T03:45:48.585Z,24.87
2018-03-16T03:48:16.147Z,24.63
2018-03-16T03:50:43.709Z,23.20
2018-03-16T03:53:11.265Z,22.43
2018-03-16T03:55:38.928Z,23.93
2018-03-16T03:58:06.484Z,23.77
2018-03-16T04:00:34.050Z,22.47
2018-03-16T04:03:01.705Z,23.60
2018-03-16T04:05:29.273Z,23.67
2018-03-16T04:07:56.821Z,24.33
2018-03-16T04:10:24.398Z,23.83
2018-03-16T04:12:51.943Z,23.00
2018-03-16T04:15:19.481Z,22.30
2018-03-16T04:17:47.823Z,21.67
2018-03-16T04:20:15.466Z,20.63
2018-03-16T04:22:43.009Z,21.63
2018-03-16T04:25:10.690Z,21.87
2018-03-16T04:27:38.258Z,21.90
2018-03-16T04:30:05.835Z,22.97
2018-03-16T04:32:33.470Z,23.47
2018-03-16T04:35:01.019Z,23.40
2018-03-16T04:37:28.570Z,22.30
2018-03-16T04:39:56.143Z,23.80
2018-03-16T04:42:23.680Z,22.90
2018-03-16T04:44:51.287Z,23.03
2018-03-16T04:47:18.859Z,23.10
2018-03-16T04:49:46.413Z,24.00
2018-03-16T04:52:13.958Z,23.10
2018-03-16T04:54:41.610Z,23.77
2018-03-16T04:57:09.175Z,23.17
2018-03-16T04:59:36.736Z,23.23
2018-03-16T05:02:04.407Z,23.10
2018-03-16T05:04:31.950Z,24.00
2018-03-16T05:06:59.530Z,23.40
2018-03-16T05:09:27.098Z,24.90
2018-03-16T05:11:54.642Z,25.03
2018-03-16T05:14:22.199Z,25.63
2018-03-16T05:16:49.869Z,24.47
2018-03-16T05:19:17.441Z,24.00
2018-03-16T05:21:44.993Z,24.73
2018-03-16T05:24:12.562Z,24.03
2018-03-16T05:26:40.110Z,23.63
2018-03-16T05:29:07.666Z,23.17
2018-03-16T05:31:35.227Z,23.00
2018-03-16T05:34:02.839Z,23.67
2018-03-16T05:36:30.492Z,23.00
2018-03-16T05:38:58.078Z,23.50
2018-03-16T05:41:26.398Z,23.23
2018-03-16T05:43:53.968Z,23.03
2018-03-16T05:46:21.633Z,23.57
2018-03-16T05:48:49.203Z,23.10
2018-03-16T05:51:16.750Z,23.33
2018-03-16T05:53:44.410Z,23.17
2018-03-16T05:56:11.956Z,22.53
2018-03-16T05:58:39.501Z,22.40
2018-03-16T06:01:07.083Z,24.23
2018-03-16T06:03:34.657Z,23.23
2018-03-16T06:06:02.213Z,24.30
2018-03-16T06:08:29.794Z,23.47
2018-03-16T06:10:57.365Z,23.83
2018-03-16T06:13:25.684Z,23.30
2018-03-16T06:15:53.292Z,23.67
2018-03-16T06:18:20.836Z,23.57
2018-03-16T06:20:48.385Z,23.60
2018-03-16T06:23:15.948Z,22.77
2018-03-16T06:25:43.491Z,23.73
2018-03-16T06:28:11.037Z,22.30
2018-03-16T06:30:39.372Z,21.53
2018-03-16T06:33:06.919Z,23.50
2018-03-16T06:35:34.484Z,22.17
2018-03-16T06:38:02.072Z,22.23
2018-03-16T06:40:29.628Z,22.93
2018-03-16T06:42:57.287Z,22.30
2018-03-16T06:45:24.953Z,21.70
2018-03-16T06:47:52.540Z,21.83
2018-03-16T06:50:20.885Z,22.07
2018-03-16T06:52:48.442Z,19.70
2018-03-16T06:55:16.088Z,20.90
2018-03-16T06:57:43.651Z,21.20
2018-03-16T07:00:11.324Z,21.17
2018-03-16T07:02:38.877Z,21.13
2018-03-16T07:05:06.446Z,21.27
2018-03-16T07:07:33.998Z,21.07
2018-03-16T07:10:01.535Z,20.13
2018-03-16T07:12:29.090Z,20.83
2018-03-16T07:14:56.668Z,21.90
2018-03-16T07:17:24.217Z,21.03
2018-03-16T07:19:51.767Z,20.17
2018-03-16T07:22:19.368Z,20.33
2018-03-16T07:24:46.930Z,21.40
2018-03-16T07:27:14.501Z,19.87
2018-03-16T07:29:42.079Z,20.97
2018-03-16T07:32:10.440Z,21.73
2018-03-16T07:34:37.989Z,20.13
2018-03-16T07:37:05.553Z,20.23
2018-03-16T07:39:33.112Z,21.13
2018-03-16T07:42:00.672Z,21.30
2018-03-16T07:44:28.220Z,21.70
2018-03-16T07:46:55.768Z,21.57
2018-03-16T07:49:23.325Z,22.77
2018-03-16T07:51:50.909Z,22.77
2018-03-16T07:54:18.472Z,23.10
2018-03-16T07:56:46.030Z,23.97
2018-03-16T07:59:13.595Z,23.93
2018-03-16T08:01:41.144Z,24.50
2018-03-16T08:04:08.694Z,22.57
2018-03-16T08:06:36.275Z,23.77
2018-03-16T08:09:03.822Z,25.07
2018-03-16T08:11:31.400Z,24.87
2018-03-16T08:13:59.067Z,25.17
2018-03-16T08:16:26.651Z,25.83
2018-03-16T08:18:54.257Z,24.67
2018-03-16T08:21:22.578Z,24.47
2018-03-16T08:23:50.129Z,23.30
2018-03-16T08:26:17.688Z,26.43
2018-03-16T08:28:45.363Z,25.33
2018-03-16T08:31:12.934Z,26.40
2018-03-16T08:33:40.493Z,29.83
2018-03-16T08:36:08.070Z,26.50
2018-03-16T08:38:35.642Z,26.37
2018-03-16T08:41:03.997Z,31.10
2018-03-16T08:43:33.186Z,27.73
2018-03-16T08:46:00.789Z,31.83
2018-03-16T08:48:28.326Z,31.90
2018-03-16T08:50:55.902Z,33.07
2018-03-16T08:53:24.221Z,34.23
2018-03-16T08:55:51.764Z,29.03
2018-03-16T08:58:19.336Z,28.37
2018-03-16T09:00:46.926Z,29.00
2018-03-16T09:03:14.668Z,21.50
2018-03-16T09:05:42.246Z,26.87
2018-03-16T09:08:09.822Z,23.17
2018-03-16T09:10:37.376Z,21.93
2018-03-16T09:13:05.031Z,24.53
2018-03-16T09:15:32.592Z,21.63
2018-03-16T09:18:00.157Z,22.37
2018-03-16T09:20:27.734Z,19.00
2018-03-16T09:22:55.287Z,19.00
2018-03-16T09:25:22.938Z,21.43
2018-03-16T09:27:50.507Z,19.83
2018-03-16T09:30:18.076Z,19.37
2018-03-16T09:32:45.635Z,17.87
2018-03-16T09:35:13.296Z,20.17
2018-03-16T09:37:40.967Z,19.53
2018-03-16T09:40:08.610Z,19.13
2018-03-16T09:42:36.187Z,19.53
2018-03-16T09:45:03.748Z,18.33
2018-03-16T09:47:32.083Z,18.60
2018-03-16T09:49:59.677Z,17.83
2018-03-16T09:52:27.224Z,16.40
2018-03-16T09:55:06.783Z,15.90
2018-03-16T09:57:34.327Z,16.67
2018-03-16T10:00:01.879Z,19.27
2018-03-16T10:02:29.462Z,18.83
2018-03-16T10:04:57.032Z,17.70
2018-03-16T10:07:24.579Z,17.97
2018-03-16T10:09:52.161Z,17.20
2018-03-16T10:12:19.734Z,17.93
2018-03-16T10:14:47.298Z,15.57
2018-03-16T10:17:15.745Z,16.70
2018-03-16T10:19:43.308Z,15.37
2018-03-16T10:22:10.873Z,15.10
2018-03-16T10:24:38.444Z,13.17
2018-03-16T10:27:05.991Z,15.40
2018-03-16T10:29:33.665Z,13.63
2018-03-16T10:32:01.256Z,12.97
2018-03-16T10:34:29.585Z,13.20
2018-03-16T10:36:57.171Z,11.93
2018-03-16T10:39:24.738Z,11.20
2018-03-16T10:41:52.397Z,12.20
2018-03-16T10:44:19.961Z,10.93
2018-03-16T10:46:47.617Z,12.47
2018-03-16T10:49:15.267Z,12.13
2018-03-16T10:51:42.935Z,11.43
2018-03-16T10:54:10.504Z,11.87
2018-03-16T10:56:38.161Z,14.30
2018-03-16T10:59:05.822Z,15.33
2018-03-16T11:01:39.027Z,16.70
2018-03-16T11:04:15.398Z,16.83
2018-03-16T11:09:46.731Z,16.70
2018-03-16T11:12:14.319Z,16.37
2018-03-16T11:14:41.874Z,15.30
2018-03-16T11:17:09.558Z,15.97
2018-03-16T11:19:37.131Z,15.60
2018-03-16T11:22:05.462Z,14.60
2018-03-16T11:24:33.014Z,14.43
2018-03-16T11:27:00.600Z,15.67
2018-03-16T11:29:28.267Z,16.23
2018-03-16T11:31:55.927Z,15.50
2018-03-16T11:34:23.587Z,14.80
2018-03-16T11:36:51.130Z,12.30
2018-03-16T11:39:18.689Z,12.53
2018-03-16T11:41:46.267Z,10.83
2018-03-16T11:44:13.826Z,9.80
2018-03-16T11:46:41.389Z,8.77
2018-03-16T11:49:09.064Z,9.43
2018-03-16T11:51:36.628Z,8.27
2018-03-16T11:54:04.191Z,9.10
2018-03-16T11:56:31.843Z,7.27
2018-03-16T11:58:59.541Z,7.90
2018-03-16T12:01:27.879Z,6.67
2018-03-16T12:03:55.557Z,5.83
2018-03-16T12:06:23.215Z,5.90
2018-03-16T12:08:50.774Z,6.40
2018-03-16T12:11:18.454Z,5.70
2018-03-16T12:13:46.111Z,5.37
2018-03-16T12:16:13.677Z,6.17
2018-03-16T12:18:41.255Z,6.43
2018-03-16T12:21:09.572Z,5.80
2018-03-16T12:23:37.130Z,5.90
2018-03-16T12:26:04.717Z,6.17
2018-03-16T12:28:49.433Z,5.53
2018-03-16T12:30:59.997Z,6.03
2018-03-16T12:33:27.614Z,3.97
2018-03-16T12:35:55.168Z,4.77
2018-03-16T12:38:22.810Z,4.30
2018-03-16T12:40:50.398Z,4.17
2018-03-16T12:43:17.958Z,4.10
2018-03-16T12:45:45.520Z,4.30
2018-03-16T12:48:13.165Z,4.30
2018-03-16T12:50:40.734Z,5.03
2018-03-16T12:53:08.288Z,5.00
2018-03-16T12:55:35.876Z,5.17
2018-03-16T12:58:03.432Z,4.23
2018-03-16T13:00:31.002Z,4.37
2018-03-16T13:02:58.593Z,4.90
2018-03-16T13:05:26.150Z,5.23
2018-03-16T13:07:54.485Z,5.17
2018-03-16T13:10:22.064Z,4.63
2018-03-16T13:12:49.612Z,4.77
2018-03-16T13:15:17.149Z,4.67
2018-03-16T13:17:44.726Z,6.83
2018-03-16T13:20:12.290Z,9.53
2018-03-16T13:22:39.859Z,13.77
2018-03-16T13:25:07.469Z,13.10
2018-03-16T13:27:35.017Z,12.20
2018-03-16T13:30:03.350Z,11.20
2018-03-16T13:32:31.007Z,9.93
2018-03-16T13:34:58.590Z,9.40
2018-03-16T13:37:26.246Z,8.30
2018-03-16T13:39:53.811Z,9.77
2018-03-16T13:42:21.381Z,9.00
2018-03-16T13:44:48.943Z,10.10
2018-03-16T13:47:16.538Z,10.53
2018-03-16T13:49:44.112Z,11.00
2018-03-16T13:52:11.689Z,10.10
2018-03-16T13:54:39.264Z,10.70
2018-03-16T13:57:06.832Z,10.20
2018-03-16T13:59:34.385Z,8.40
2018-03-16T14:02:02.059Z,10.20
2018-03-16T14:04:29.603Z,9.83
2018-03-16T14:06:57.161Z,9.07
2018-03-16T14:09:24.845Z,6.80
2018-03-16T14:11:52.473Z,7.47
2018-03-16T14:14:20.058Z,6.17
2018-03-16T14:16:47.716Z,6.93
2018-03-16T14:19:15.369Z,6.70
2018-03-16T14:21:42.991Z,6.00
2018-03-16T14:24:11.412Z,6.43
2018-03-16T14:26:38.958Z,5.80
2018-03-16T14:29:06.517Z,6.20
2018-03-16T14:31:34.095Z,6.57
2018-03-16T14:34:01.639Z,6.20
2018-03-16T14:36:29.219Z,6.57
2018-03-16T14:38:56.877Z,7.10
2018-03-16T14:41:24.430Z,8.47
2018-03-16T14:43:52.088Z,10.97
2018-03-16T14:46:19.666Z,12.00
2018-03-16T14:48:47.327Z,10.47
2018-03-16T14:51:14.896Z,10.27
2018-03-16T14:53:42.502Z,11.37
2018-03-16T14:56:10.826Z,10.97
2018-03-16T14:58:38.382Z,11.07
2018-03-16T15:01:05.942Z,9.77
2018-03-16T15:03:33.492Z,9.60
2018-03-16T15:06:01.075Z,8.63
2018-03-16T15:08:28.635Z,9.50
2018-03-16T15:10:56.185Z,10.37
2018-03-16T15:13:23.743Z,11.60
2018-03-16T15:15:51.335Z,11.83
2018-03-16T15:18:18.897Z,10.63
2018-03-16T15:20:46.550Z,11.67
2018-03-16T15:23:14.128Z,12.43
2018-03-16T15:25:41.767Z,14.10
2018-03-16T15:28:09.331Z,11.97
2018-03-16T15:30:36.995Z,9.57
2018-03-16T15:33:04.555Z,12.67
2018-03-16T15:35:32.208Z,14.43
2018-03-16T15:37:59.868Z,14.93
2018-03-16T15:40:27.439Z,14.90
2018-03-16T15:42:55.174Z,14.43
2018-03-16T15:45:22.762Z,13.50
2018-03-16T15:47:50.325Z,15.00
2018-03-16T15:50:18.059Z,19.73
2018-03-16T15:52:45.648Z,23.37
2018-03-16T15:55:13.313Z,28.93
2018-03-16T15:57:40.979Z,30.83
2018-03-16T16:00:08.551Z,35.83
2018-03-16T16:02:36.111Z,48.00
2018-03-16T16:05:03.754Z,50.00
2018-03-16T16:07:31.321Z,49.23
2018-03-16T16:09:58.865Z,50.07
2018-03-16T16:12:26.426Z,50.73
2018-03-16T16:14:54.104Z,49.97
2018-03-16T16:17:21.647Z,43.93
2018-03-16T16:19:49.214Z,51.03
2018-03-16T16:22:16.799Z,50.83
2018-03-16T16:24:44.367Z,48.90
2018-03-16T16:27:12.722Z,47.27
2018-03-16T16:29:40.388Z,49.80
2018-03-16T16:32:07.967Z,52.87
2018-03-16T16:34:36.316Z,53.00
2018-03-16T16:37:03.884Z,51.97
2018-03-16T16:39:31.473Z,63.40
2018-03-16T16:41:59.801Z,62.93
2018-03-16T16:44:27.476Z,72.60
2018-03-16T16:46:55.071Z,72.97
2018-03-16T16:49:23.426Z,68.80
2018-03-16T16:51:51.096Z,63.57
2018-03-16T16:54:18.656Z,55.43
2018-03-16T16:56:46.212Z,57.30
2018-03-16T16:59:13.790Z,63.93
2018-03-16T17:01:41.355Z,60.07
2018-03-16T17:04:08.906Z,60.93
2018-03-16T17:06:37.253Z,48.73
2018-03-16T17:09:04.810Z,51.73
2018-03-16T17:11:32.364Z,45.23
2018-03-16T17:13:59.923Z,43.97
2018-03-16T17:16:27.476Z,49.50
2018-03-16T17:18:55.024Z,49.83
2018-03-16T17:21:22.619Z,45.20
2018-03-16T17:23:50.188Z,47.70
2018-03-16T17:26:17.744Z,48.50
2018-03-16T17:28:45.413Z,49.60
2018-03-16T17:31:12.969Z,49.90
2018-03-16T17:33:40.511Z,50.70
2018-03-16T17:36:08.120Z,48.70
2018-03-16T17:38:36.455Z,50.03
2018-03-16T17:41:04.031Z,48.70
2018-03-16T17:43:31.601Z,49.73
2018-03-16T17:45:59.154Z,48.60
2018-03-16T17:48:26.825Z,51.17
2018-03-16T17:50:54.412Z,50.40
2018-03-16T17:53:22.730Z,54.30
2018-03-16T17:55:50.317Z,53.07
2018-03-16T17:58:17.917Z,54.57
2018-03-16T18:00:46.260Z,51.00
2018-03-16T18:03:13.915Z,51.80
2018-03-16T18:05:41.578Z,48.60
2018-03-16T18:08:09.226Z,40.53
2018-03-16T18:10:36.781Z,43.70
2018-03-16T18:13:04.354Z,43.57
2018-03-16T18:15:31.912Z,43.80
2018-03-16T18:17:59.476Z,42.27
2018-03-16T18:20:27.167Z,41.63
2018-03-16T18:22:54.732Z,38.03
2018-03-16T18:25:22.275Z,41.77
2018-03-16T18:27:49.936Z,38.67
2018-03-16T18:30:17.496Z,39.30
2018-03-16T18:32:45.055Z,38.77
2018-03-16T18:35:12.639Z,36.20
2018-03-16T18:37:40.978Z,36.93
2018-03-16T18:40:08.546Z,37.67
2018-03-16T18:42:36.111Z,36.83
2018-03-16T18:45:03.763Z,36.10
2018-03-16T18:47:31.320Z,39.20
2018-03-16T18:49:58.886Z,39.10
2018-03-16T18:52:26.437Z,36.47
2018-03-16T18:54:54.015Z,37.40
2018-03-16T18:57:21.621Z,38.53
2018-03-16T18:59:49.946Z,37.93
2018-03-16T19:02:17.548Z,37.53
2018-03-16T19:04:45.105Z,37.90
2018-03-16T19:07:13.432Z,38.17
2018-03-16T19:09:40.998Z,38.40
2018-03-16T19:12:08.573Z,37.80
2018-03-16T19:14:36.129Z,37.37
2018-03-16T19:17:03.666Z,37.17
2018-03-16T19:19:31.312Z,40.03
2018-03-16T19:21:58.898Z,39.87
2018-03-16T19:24:26.746Z,40.97
2018-03-16T19:26:54.315Z,42.27
2018-03-16T19:29:21.911Z,42.67
2018-03-16T19:31:49.456Z,42.63
2018-03-16T19:34:17.030Z,41.47
2018-03-16T19:36:44.640Z,42.10
2018-03-16T19:39:12.257Z,41.87
2018-03-16T19:41:39.847Z,42.87
2018-03-16T19:44:08.183Z,43.13
2018-03-16T19:46:35.743Z,43.90
2018-03-16T19:49:03.308Z,42.73
2018-03-16T19:51:30.979Z,41.93
2018-03-16T19:53:58.563Z,41.93
2018-03-16T19:56:26.987Z,43.70
2018-03-16T19:58:54.553Z,42.03
2018-03-16T20:01:22.112Z,43.00
2018-03-16T20:03:49.679Z,40.83
2018-03-16T20:06:17.254Z,38.13
2018-03-16T20:08:44.812Z,39.10
2018-03-16T20:11:12.376Z,38.00
2018-03-16T20:13:39.955Z,39.30
2018-03-16T20:16:07.521Z,42.07
2018-03-16T20:18:35.864Z,41.30
2018-03-16T20:21:03.405Z,46.90
2018-03-16T20:23:30.953Z,43.63
2018-03-16T20:25:58.535Z,47.00
2018-03-16T20:28:26.098Z,44.23
2018-03-16T20:30:53.671Z,43.70
2018-03-16T20:33:21.260Z,44.77
2018-03-16T20:35:48.827Z,44.30
2018-03-16T20:38:17.247Z,47.07
2018-03-16T20:40:44.828Z,48.77
2018-03-16T20:43:12.384Z,47.07
2018-03-16T20:45:39.965Z,49.33
2018-03-16T20:48:07.629Z,46.23
2018-03-16T20:50:35.206Z,51.17
2018-03-16T20:53:03.539Z,47.17
2018-03-16T20:55:31.121Z,49.10
2018-03-16T20:57:58.689Z,50.13
2018-03-16T21:00:26.344Z,48.97
2018-03-16T21:02:53.923Z,47.43
2018-03-16T21:05:21.466Z,46.93
2018-03-16T21:07:49.109Z,45.87
2018-03-16T21:10:16.777Z,47.37
2018-03-16T21:12:44.322Z,47.37
2018-03-16T21:15:11.906Z,48.03
2018-03-16T21:17:39.570Z,45.63
2018-03-16T21:20:07.163Z,46.03
2018-03-16T21:22:34.792Z,46.10
2018-03-16T21:25:02.446Z,46.13
2018-03-16T21:27:30.001Z,47.27
2018-03-16T21:29:57.656Z,49.03
2018-03-16T21:32:25.346Z,47.07
2018-03-16T21:34:52.904Z,49.47
2018-03-16T21:37:20.692Z,46.40
2018-03-16T21:39:49.054Z,44.90
2018-03-16T21:42:16.608Z,43.07
2018-03-16T21:44:44.179Z,41.90
2018-03-16T21:47:12.524Z,41.67
2018-03-16T21:49:40.100Z,42.93
2018-03-16T21:52:07.664Z,43.80
2018-03-16T21:54:35.232Z,43.13
2018-03-16T21:57:02.794Z,45.10
2018-03-16T21:59:30.360Z,47.97
2018-03-16T22:01:57.940Z,44.90
2018-03-16T22:04:26.258Z,44.77
2018-03-16T22:06:53.922Z,45.33
2018-03-16T22:09:21.498Z,43.10
2018-03-16T22:11:49.074Z,46.43
2018-03-16T22:14:16.620Z,42.10
2018-03-16T22:16:44.204Z,44.03
2018-03-16T22:19:11.857Z,43.73
2018-03-16T22:21:39.413Z,45.00
2018-03-16T22:24:06.999Z,46.17
2018-03-16T22:26:34.648Z,47.63
2018-03-16T22:29:02.983Z,45.20
2018-03-16T22:31:30.571Z,45.07
2018-03-16T22:33:58.135Z,45.83
2018-03-16T22:36:25.694Z,45.50
2018-03-16T22:38:53.847Z,46.23
2018-03-16T22:41:21.406Z,45.57
2018-03-16T22:43:48.998Z,45.47
2018-03-16T22:46:16.650Z,46.17
2018-03-16T22:48:44.302Z,49.10
2018-03-16T22:51:11.840Z,44.63
2018-03-16T22:53:39.395Z,46.23
2018-03-16T22:56:07.723Z,45.03
2018-03-16T22:58:35.268Z,44.27
2018-03-16T23:01:02.852Z,41.33
2018-03-16T23:03:30.459Z,42.63
2018-03-16T23:05:58.007Z,41.13
2018-03-16T23:08:26.348Z,38.57
2018-03-16T23:10:53.906Z,42.50
2018-03-16T23:13:21.480Z,44.53
2018-03-16T23:15:49.069Z,45.37
2018-03-16T23:18:17.391Z,44.47
2018-03-16T23:20:44.942Z,44.10
2018-03-16T23:23:12.512Z,43.87
2018-03-16T23:25:40.054Z,43.23
2018-03-16T23:28:07.645Z,44.10
2018-03-16T23:30:35.415Z,42.97
2018-03-16T23:33:04.887Z,45.47
2018-03-16T23:35:32.492Z,41.33
2018-03-16T23:38:00.063Z,43.10
2018-03-16T23:40:29.148Z,40.80
2018-03-16T23:42:56.799Z,41.07
2018-03-16T23:45:24.379Z,42.17
2018-03-16T23:47:52.037Z,42.37
2018-03-16T23:50:19.596Z,41.13
2018-03-16T23:52:47.162Z,42.37
2018-03-16T23:55:14.715Z,40.73
2018-03-16T23:57:42.265Z,41.20
